createdAt,value
2023-01-22T00:00:29.890Z,18.60
2023-01-22T00:05:31.799Z,21.20
2023-01-22T00:10:33.751Z,17.37
2023-01-22T00:15:38.736Z,17.77
2023-01-22T00:20:41.770Z,16.80
2023-01-22T00:25:44.226Z,16.87
2023-01-22T00:30:46.190Z,17.83
2023-01-22T00:35:47.962Z,17.60
2023-01-22T00:40:49.768Z,15.50
2023-01-22T00:45:51.652Z,17.27
2023-01-22T00:50:54.899Z,15.80
2023-01-22T00:56:01.435Z,15.67
2023-01-22T01:01:04.972Z,16.83
2023-01-22T01:06:13.006Z,16.93
2023-01-22T01:11:18.314Z,17.07
2023-01-22T01:16:26.731Z,17.27
2023-01-22T01:21:29.083Z,16.53
2023-01-22T01:26:31.071Z,17.73
2023-01-22T01:31:33.111Z,17.43
2023-01-22T01:36:48.363Z,16.60
2023-01-22T01:41:51.503Z,17.23
2023-01-22T01:46:53.272Z,16.20
2023-01-22T01:51:57.795Z,12.67
2023-01-22T01:57:18.369Z,15.20
2023-01-22T02:02:20.752Z,16.77
2023-01-22T02:07:23.884Z,15.73
2023-01-22T02:12:25.985Z,15.33
2023-01-22T02:17:27.917Z,16.50
2023-01-22T02:22:32.306Z,16.57
2023-01-22T02:27:35.132Z,18.23
2023-01-22T02:32:37.212Z,16.17
2023-01-22T02:37:39.105Z,17.47
2023-01-22T02:42:41.852Z,18.13
2023-01-22T02:47:43.770Z,16.90
2023-01-22T02:52:45.611Z,17.30
2023-01-22T02:57:47.797Z,17.63
2023-01-22T03:02:49.799Z,16.43
2023-01-22T03:07:51.838Z,16.20
2023-01-22T03:13:12.765Z,16.00
2023-01-22T03:18:34.274Z,15.73
2023-01-22T03:23:37.545Z,16.90
2023-01-22T03:28:40.012Z,17.57
2023-01-22T03:33:43.351Z,17.07
2023-01-22T03:38:46.852Z,15.23
2023-01-22T03:43:53.650Z,14.90
2023-01-22T03:49:00.726Z,16.77
2023-01-22T03:54:02.909Z,18.03
2023-01-22T03:59:04.900Z,14.97
2023-01-22T04:04:08.068Z,16.77
2023-01-22T04:09:10.180Z,15.53
2023-01-22T04:14:16.231Z,16.17
2023-01-22T04:19:30.505Z,17.13
2023-01-22T04:24:32.357Z,16.83
2023-01-22T04:29:35.575Z,15.57
2023-01-22T04:34:40.710Z,16.10
2023-01-22T04:39:54.752Z,17.03
2023-01-22T04:44:57.467Z,16.70
2023-01-22T04:49:59.505Z,17.40
2023-01-22T04:55:01.536Z,17.07
2023-01-22T05:00:15.206Z,17.20
2023-01-22T05:05:17.790Z,17.00
2023-01-22T05:10:20.600Z,15.70
2023-01-22T05:15:24.698Z,17.70
2023-01-22T05:20:30.298Z,16.90
2023-01-22T05:25:33.842Z,17.20
2023-01-22T05:30:39.073Z,17.03
2023-01-22T05:35:58.381Z,17.80
2023-01-22T05:41:00.508Z,16.07
2023-01-22T05:46:06.720Z,16.43
2023-01-22T05:51:26.118Z,15.30
2023-01-22T05:56:28.499Z,15.77
2023-01-22T06:01:30.447Z,14.43
2023-01-22T06:06:34.219Z,12.17
2023-01-22T06:11:36.482Z,13.33
2023-01-22T06:16:39.070Z,13.83
2023-01-22T06:21:45.291Z,14.53
2023-01-22T06:26:47.581Z,16.17
2023-01-22T06:31:50.601Z,14.33
2023-01-22T06:36:54.217Z,15.17
2023-01-22T06:41:58.244Z,15.87
2023-01-22T06:47:00.379Z,14.80
2023-01-22T06:52:06.893Z,14.73
2023-01-22T06:57:08.864Z,15.73
2023-01-22T07:02:17.849Z,16.23
2023-01-22T07:07:19.875Z,14.93
2023-01-22T07:12:21.785Z,16.53
2023-01-22T07:17:23.591Z,16.93
2023-01-22T07:22:25.586Z,16.43
2023-01-22T07:27:27.794Z,14.33
2023-01-22T07:32:30.157Z,15.00
2023-01-22T07:37:31.945Z,13.37
2023-01-22T07:42:34.001Z,15.13
2023-01-22T07:47:36.789Z,16.17
2023-01-22T07:52:39.264Z,13.80
2023-01-22T07:57:41.243Z,14.13
2023-01-22T08:02:43.280Z,14.13
2023-01-22T08:07:45.091Z,12.63
2023-01-22T08:12:47.088Z,12.37
2023-01-22T08:17:51.045Z,12.13
2023-01-22T08:23:00.049Z,12.40
2023-01-22T08:28:03.490Z,13.30
2023-01-22T08:33:05.698Z,12.80
2023-01-22T08:38:07.742Z,13.60
2023-01-22T08:43:09.667Z,11.00
2023-01-22T08:48:11.492Z,11.73
2023-01-22T08:53:13.312Z,11.53
2023-01-22T08:58:15.194Z,11.93
2023-01-22T09:03:17.330Z,12.83
2023-01-22T09:08:19.732Z,12.77
2023-01-22T09:13:21.756Z,13.23
2023-01-22T09:18:24.044Z,10.87
2023-01-22T09:23:25.801Z,11.70
2023-01-22T09:28:27.731Z,11.23
2023-01-22T09:33:29.860Z,12.00
2023-01-22T09:38:31.710Z,12.27
2023-01-22T09:44:06.567Z,10.80
2023-01-22T09:49:21.497Z,12.33
2023-01-22T09:54:24.582Z,12.67
2023-01-22T09:59:38.654Z,14.33
2023-01-22T10:04:45.157Z,14.20
2023-01-22T10:09:52.652Z,12.83
2023-01-22T10:14:55.033Z,13.30
2023-01-22T10:20:02.682Z,14.07
2023-01-22T10:25:05.120Z,14.53
2023-01-22T10:30:23.673Z,12.87
2023-01-22T10:35:25.852Z,12.67
2023-01-22T10:40:40.885Z,11.77
2023-01-22T10:45:53.340Z,11.67
2023-01-22T10:51:03.273Z,11.47
2023-01-22T10:56:12.440Z,11.43
2023-01-22T11:01:36.223Z,11.03
2023-01-22T11:06:44.488Z,11.30
2023-01-22T11:11:57.537Z,11.33
2023-01-22T11:17:09.462Z,10.40
2023-01-22T11:22:22.039Z,10.70
2023-01-22T11:27:55.892Z,9.57
2023-01-22T11:33:19.676Z,9.97
2023-01-22T11:38:40.143Z,11.13
2023-01-22T11:43:42.003Z,10.90
2023-01-22T11:48:53.054Z,11.13
2023-01-22T11:54:06.369Z,10.10
2023-01-22T11:59:11.645Z,11.40
2023-01-22T12:04:29.941Z,9.63
2023-01-22T12:09:49.173Z,11.33
2023-01-22T12:15:06.016Z,9.93
2023-01-22T12:20:23.889Z,11.23
2023-01-22T12:25:46.891Z,11.83
2023-01-22T12:31:04.155Z,10.80
2023-01-22T12:36:13.077Z,12.03
2023-01-22T12:41:53.475Z,12.33
2023-01-22T12:47:21.428Z,11.43
2023-01-22T12:52:32.471Z,11.50
2023-01-22T12:57:41.870Z,11.80
2023-01-22T13:02:43.826Z,11.40
2023-01-22T13:07:47.180Z,9.20
2023-01-22T13:12:51.031Z,12.37
2023-01-22T13:18:07.208Z,11.53
2023-01-22T13:23:13.038Z,11.37
2023-01-22T13:28:18.903Z,12.37
2023-01-22T13:33:20.883Z,11.93
2023-01-22T13:38:28.300Z,10.83
2023-01-22T13:43:30.467Z,12.73
2023-01-22T13:48:32.695Z,13.57
2023-01-22T13:53:42.497Z,12.73
2023-01-22T13:58:49.289Z,10.80
2023-01-22T14:04:02.249Z,12.00
2023-01-22T14:09:04.055Z,11.80
2023-01-22T14:14:18.818Z,11.50
2023-01-22T14:19:20.803Z,11.77
2023-01-22T14:24:22.752Z,10.63
2023-01-22T14:29:24.528Z,11.03
2023-01-22T14:34:26.357Z,10.93
2023-01-22T14:39:32.685Z,10.07
2023-01-22T14:44:35.704Z,10.23
2023-01-22T14:49:39.432Z,10.80
2023-01-22T14:54:41.377Z,11.07
2023-01-22T14:59:43.374Z,9.90
2023-01-22T15:04:45.565Z,9.63
2023-01-22T15:09:47.476Z,10.93
2023-01-22T15:14:49.468Z,10.80
2023-01-22T15:19:51.530Z,8.90
2023-01-22T15:24:53.568Z,11.70
2023-01-22T15:29:55.514Z,10.97
2023-01-22T15:34:57.504Z,10.63
2023-01-22T15:39:59.931Z,9.80
2023-01-22T15:45:03.893Z,10.63
2023-01-22T15:50:06.235Z,10.90
2023-01-22T15:55:08.621Z,11.17
2023-01-22T16:00:11.647Z,11.50
2023-01-22T16:05:16.556Z,12.33
2023-01-22T16:10:18.939Z,11.23
2023-01-22T16:15:20.984Z,11.67
2023-01-22T16:20:23.053Z,11.70
2023-01-22T16:25:24.840Z,11.53
2023-01-22T16:30:26.793Z,12.53
2023-01-22T16:35:28.918Z,11.80
2023-01-22T16:40:31.529Z,11.13
2023-01-22T16:45:34.688Z,11.07
2023-01-22T16:50:36.796Z,11.50
2023-01-22T16:55:38.707Z,11.83
2023-01-22T17:00:41.274Z,12.77
2023-01-22T17:05:43.226Z,13.23
2023-01-22T17:10:45.069Z,12.53
2023-01-22T17:15:52.531Z,12.77
2023-01-22T17:21:02.159Z,12.23
2023-01-22T17:26:10.184Z,13.33
2023-01-22T17:31:15.577Z,13.23
2023-01-22T17:36:22.528Z,13.20
2023-01-22T17:41:25.416Z,12.97
2023-01-22T17:46:31.518Z,11.73
2023-01-22T17:51:35.601Z,14.60
2023-01-22T17:56:42.927Z,13.53
2023-01-22T18:01:45.189Z,14.23
2023-01-22T18:06:47.341Z,13.83
2023-01-22T18:11:49.312Z,14.23
2023-01-22T18:16:51.283Z,14.10
2023-01-22T18:21:53.129Z,13.77
2023-01-22T18:26:55.195Z,14.63
2023-01-22T18:31:57.166Z,13.10
2023-01-22T18:36:59.101Z,14.73
2023-01-22T18:42:01.080Z,13.50
2023-01-22T18:47:03.811Z,13.47
2023-01-22T18:52:05.668Z,13.37
2023-01-22T18:57:07.610Z,14.43
2023-01-22T19:02:12.329Z,14.37
2023-01-22T19:07:14.205Z,13.63
2023-01-22T19:12:18.852Z,14.27
2023-01-22T19:17:20.915Z,14.27
2023-01-22T19:22:23.753Z,15.13
2023-01-22T19:27:25.558Z,15.93
2023-01-22T19:32:30.153Z,15.23
2023-01-22T19:37:32.681Z,15.13
2023-01-22T19:42:34.661Z,15.30
2023-01-22T19:47:36.620Z,15.50
2023-01-22T19:52:38.641Z,17.07
2023-01-22T19:57:40.476Z,14.63
2023-01-22T20:02:42.591Z,14.70
2023-01-22T20:07:45.333Z,14.40
2023-01-22T20:12:50.213Z,15.07
2023-01-22T20:17:52.385Z,15.43
2023-01-22T20:22:54.231Z,16.33
2023-01-22T20:27:57.637Z,15.13
2023-01-22T20:32:59.672Z,14.93
2023-01-22T20:38:01.604Z,15.97
2023-01-22T20:43:03.400Z,16.80
2023-01-22T20:48:05.387Z,16.40
2023-01-22T20:53:07.754Z,15.70
2023-01-22T20:58:09.604Z,17.37
2023-01-22T21:03:11.443Z,16.83
2023-01-22T21:08:14.931Z,17.43
2023-01-22T21:13:18.025Z,19.13
2023-01-22T21:18:21.790Z,17.23
2023-01-22T21:23:23.577Z,18.00
2023-01-22T21:28:25.766Z,18.37
2023-01-22T21:33:27.852Z,18.03
2023-01-22T21:38:29.746Z,19.60
2023-01-22T21:43:50.267Z,17.67
2023-01-22T21:48:54.316Z,19.70
2023-01-22T21:53:58.047Z,18.27
2023-01-22T21:58:59.948Z,17.80
2023-01-22T22:04:03.734Z,16.73
2023-01-22T22:09:12.370Z,17.83
2023-01-22T22:14:17.038Z,17.47
2023-01-22T22:19:19.983Z,16.63
2023-01-22T22:24:22.100Z,16.00
2023-01-22T22:29:24.053Z,16.73
2023-01-22T22:34:25.861Z,15.83
2023-01-22T22:39:27.882Z,15.73
2023-01-22T22:44:29.708Z,15.83
2023-01-22T22:49:31.822Z,14.63
2023-01-22T22:54:33.814Z,15.57
2023-01-22T22:59:35.637Z,15.00
2023-01-22T23:04:37.631Z,16.30
2023-01-22T23:09:39.674Z,14.43
2023-01-22T23:14:41.513Z,16.70
2023-01-22T23:19:43.612Z,13.40
2023-01-22T23:24:46.514Z,15.43
2023-01-22T23:29:48.461Z,16.43
2023-01-22T23:34:50.520Z,16.27
2023-01-22T23:39:52.485Z,16.47
2023-01-22T23:44:54.303Z,16.20
2023-01-22T23:49:56.077Z,16.00
2023-01-22T23:54:58.027Z,17.80
